Time;durP1;ratioP1;P1;durP2;ratioP2;P2;SDS_P1;SDS_P2;PMS_P1;PMS_P2;Temp;Humidity;BMP_temperature;BMP_pressure;BME280_temperature;BME280_humidity;BME280_pressure;Samples;Min_cycle;Max_cycle;Signal;HPM_P1;HPM_P2
2021/12/21 00:05:52;;;;;;;15.95;7.00;;;-0.60;99.90;;;;;;20837940;28;20109;-75
2021/12/21 00:25:54;;;;;;;15.43;7.40;;;-0.80;99.90;;;;;;20836206;28;20112;-75
2021/12/21 00:35:55;;;;;;;20.70;7.35;;;-0.90;99.90;;;;;;20835601;28;20098;-76
2021/12/21 00:45:56;;;;;;;20.27;6.85;;;-0.90;99.90;;;;;;20834795;28;20116;-75
2021/12/21 00:55:57;;;;;;;15.65;6.38;;;-0.90;99.90;;;;;;20834160;28;20033;-77
2021/12/21 01:06:57;;;;;;;17.08;5.97;;;-0.80;99.90;;;;;;20833192;28;20554;-75
2021/12/21 01:16:26;;;;;;;27.90;7.13;;;-0.90;99.90;;;;;;20835789;28;20056;-77
2021/12/21 01:36:42;;;;;;;17.08;6.82;;;-0.90;99.90;;;;;;20838648;28;20381;-76
2021/12/21 01:57:06;;;;;;;17.10;6.47;;;-0.60;99.90;;;;;;20838988;28;20044;-76
2021/12/21 02:07:08;;;;;;;17.55;6.93;;;-0.60;99.90;;;;;;20835568;28;20079;-75
2021/12/21 02:27:28;;;;;;;15.48;6.75;;;-0.60;99.90;;;;;;20832784;28;20048;-77
2021/12/21 02:37:29;;;;;;;27.33;8.10;;;-0.60;99.90;;;;;;20832412;28;20061;-77
2021/12/21 02:47:29;;;;;;;17.65;7.43;;;-0.60;99.90;;;;;;20830918;28;20072;-76
2021/12/21 02:57:30;;;;;;;13.50;5.57;;;-0.50;99.90;;;;;;20830341;28;20498;-78
2021/12/21 03:17:32;;;;;;;10.40;5.13;;;-0.60;99.90;;;;;;20830309;28;20038;-77
2021/12/21 03:27:33;;;;;;;14.88;5.65;;;-0.70;99.90;;;;;;20830200;28;20104;-77
2021/12/21 03:37:34;;;;;;;13.68;6.28;;;-0.80;99.90;;;;;;20830344;28;20022;-75
2021/12/21 03:47:35;;;;;;;20.73;6.00;;;-0.90;99.90;;;;;;20825844;28;20113;-78
2021/12/21 03:57:36;;;;;;;21.63;6.15;;;-0.90;99.90;;;;;;20828448;28;20033;-77
2021/12/21 04:07:36;;;;;;;14.38;5.65;;;-0.90;99.90;;;;;;20849384;28;20034;-77
2021/12/21 04:17:37;;;;;;;20.20;5.68;;;-0.80;99.90;;;;;;20843066;28;20021;-77
2021/12/21 04:27:38;;;;;;;20.60;5.47;;;-0.90;99.90;;;;;;20843137;28;20401;-78
2021/12/21 04:37:44;;;;;;;14.88;4.72;;;-0.80;99.90;;;;;;20844490;28;20116;-75
2021/12/21 04:47:45;;;;;;;12.13;5.07;;;-0.60;99.90;;;;;;20847517;28;20064;-77
2021/12/21 04:57:45;;;;;;;12.63;5.50;;;-0.60;99.90;;;;;;20849762;28;20033;-77
2021/12/21 05:07:51;;;;;;;15.73;6.20;;;-0.80;99.90;;;;;;20847566;28;20080;-77
2021/12/21 05:17:52;;;;;;;14.25;5.20;;;-0.80;99.90;;;;;;20844108;28;20048;-76
2021/12/21 05:27:53;;;;;;;14.82;5.43;;;-0.80;99.90;;;;;;20873249;28;20048;-77
2021/12/21 05:37:59;;;;;;;12.50;4.97;;;-0.80;99.90;;;;;;20858236;28;20487;-77
2021/12/21 05:48:00;;;;;;;14.95;5.60;;;-0.90;99.90;;;;;;20868956;28;20029;-78
2021/12/21 05:58:01;;;;;;;14.55;5.10;;;-0.80;99.90;;;;;;20918502;28;20037;-76
2021/12/21 06:08:03;;;;;;;15.55;6.30;;;-0.80;99.90;;;;;;20913268;28;20037;-77
2021/12/21 06:28:32;;;;;;;23.02;5.75;;;-0.60;99.90;;;;;;20927796;28;20037;-78
2021/12/21 06:38:33;;;;;;;14.43;6.05;;;-0.60;99.90;;;;;;20869887;28;20033;-76
2021/12/21 06:58:55;;;;;;;15.45;6.75;;;-0.50;99.90;;;;;;20913275;28;20067;-78
2021/12/21 07:09:05;;;;;;;15.55;6.97;;;-0.40;99.90;;;;;;20917697;28;20025;-78
2021/12/21 07:19:06;;;;;;;22.33;7.87;;;-0.40;99.90;;;;;;20911876;28;20043;-77
2021/12/21 07:29:07;;;;;;;21.23;9.32;;;-0.40;99.90;;;;;;20909985;28;20474;-78
2021/12/21 07:39:09;;;;;;;22.83;8.43;;;-0.40;99.90;;;;;;20911617;28;20041;-78
2021/12/21 07:49:10;;;;;;;19.15;7.97;;;-0.40;99.90;;;;;;20926016;28;20480;-77
2021/12/21 07:59:12;;;;;;;17.80;8.30;;;-0.30;99.90;;;;;;20925203;28;20052;-77
2021/12/21 08:09:13;;;;;;;23.95;8.57;;;-0.20;99.90;;;;;;20923601;28;20025;-78
2021/12/21 08:19:14;;;;;;;21.63;9.50;;;-0.20;99.90;;;;;;20923308;28;20123;-77
2021/12/21 08:29:14;;;;;;;17.02;7.90;;;-0.20;99.90;;;;;;20935063;28;20025;-77
2021/12/21 08:39:17;;;;;;;17.58;9.07;;;-0.10;99.90;;;;;;20921904;28;20063;-77
2021/12/21 08:49:18;;;;;;;18.98;9.05;;;-0.10;99.90;;;;;;20921333;28;20528;-77
2021/12/21 08:59:19;;;;;;;17.80;8.25;;;-0.10;99.90;;;;;;20920164;28;20047;-78
2021/12/21 09:09:20;;;;;;;18.30;9.63;;;0.00;99.90;;;;;;20918953;28;20028;-77
2021/12/21 09:19:21;;;;;;;22.40;8.13;;;0.10;99.90;;;;;;20918651;28;20036;-77
2021/12/21 09:29:22;;;;;;;17.25;7.93;;;0.30;99.90;;;;;;20917321;28;20033;-78
2021/12/21 09:39:23;;;;;;;20.50;9.73;;;0.40;99.90;;;;;;20917400;28;20025;-77
2021/12/21 09:49:24;;;;;;;23.83;10.23;;;0.40;99.90;;;;;;20915698;28;20037;-77
2021/12/21 09:59:25;;;;;;;27.67;12.13;;;0.40;99.90;;;;;;20915894;28;20036;-77
2021/12/21 10:09:34;;;;;;;20.42;9.35;;;0.50;99.90;;;;;;20915488;28;20055;-78
2021/12/21 10:19:36;;;;;;;27.95;11.63;;;0.50;99.90;;;;;;20917097;28;20561;-78
2021/12/21 10:29:48;;;;;;;21.02;9.43;;;0.50;99.90;;;;;;20920488;28;20040;-78
2021/12/21 10:39:49;;;;;;;21.88;9.90;;;0.60;99.90;;;;;;20911723;28;20090;-78
2021/12/21 10:49:52;;;;;;;23.83;12.02;;;0.80;99.90;;;;;;20910805;28;20040;-76
2021/12/21 10:59:56;;;;;;;28.73;11.30;;;0.80;99.90;;;;;;20910380;28;20028;-78
2021/12/21 11:10:10;;;;;;;23.55;10.85;;;0.90;99.90;;;;;;20912289;28;20032;-76
2021/12/21 11:20:14;;;;;;;47.30;17.65;;;0.90;99.90;;;;;;20923192;28;20070;-76
2021/12/21 11:30:21;;;;;;;23.35;11.60;;;0.80;99.90;;;;;;20928517;28;20044;-78
2021/12/21 11:40:27;;;;;;;23.50;11.50;;;0.80;99.90;;;;;;20929334;28;20480;-77
2021/12/21 11:50:28;;;;;;;24.95;10.10;;;0.90;99.90;;;;;;20924746;28;20025;-77
2021/12/21 12:00:35;;;;;;;19.42;9.02;;;0.70;99.90;;;;;;20925808;28;20068;-78
2021/12/21 12:10:58;;;;;;;29.80;14.70;;;0.70;99.90;;;;;;20924777;28;20399;-77
2021/12/21 12:21:29;;;;;;;27.52;11.85;;;0.70;99.90;;;;;;20923155;28;20103;-77
2021/12/21 12:31:33;;;;;;;28.50;12.05;;;0.80;99.90;;;;;;20922560;28;20029;-78
2021/12/21 12:41:46;;;;;;;22.52;11.43;;;0.80;99.90;;;;;;20922243;28;20035;-77
2021/12/21 12:51:47;;;;;;;24.08;11.85;;;0.70;99.90;;;;;;20918195;28;20082;-76
2021/12/21 13:01:49;;;;;;;30.27;11.43;;;0.80;99.90;;;;;;20910326;28;20037;-77
2021/12/21 13:11:50;;;;;;;27.30;11.40;;;0.60;99.90;;;;;;20916107;28;20033;-77
2021/12/21 13:21:56;;;;;;;31.88;12.90;;;0.60;99.90;;;;;;20915906;28;20408;-77
2021/12/21 13:32:00;;;;;;;50.95;17.92;;;0.70;99.90;;;;;;20916208;28;20029;-77
2021/12/21 13:42:22;;;;;;;35.95;15.15;;;0.80;99.90;;;;;;20913877;28;20032;-77
2021/12/21 13:52:25;;;;;;;21.60;10.82;;;0.80;99.90;;;;;;20892034;28;20037;-77
2021/12/21 14:02:34;;;;;;;22.70;10.02;;;0.80;99.90;;;;;;20837074;28;20108;-75
2021/12/21 14:12:35;;;;;;;25.45;11.27;;;0.70;99.90;;;;;;20854908;28;20037;-76
2021/12/21 14:22:38;;;;;;;23.67;10.30;;;0.60;99.90;;;;;;20888382;28;20093;-77
2021/12/21 14:33:03;;;;;;;23.60;10.10;;;0.40;99.90;;;;;;20893152;28;20063;-74
2021/12/21 14:43:04;;;;;;;24.40;10.55;;;0.40;99.90;;;;;;20902224;28;20055;-77
2021/12/21 14:53:14;;;;;;;34.88;12.27;;;0.50;99.90;;;;;;20894458;28;20028;-78
2021/12/21 15:03:17;;;;;;;28.33;11.35;;;0.50;99.90;;;;;;20899796;28;20535;-76
2021/12/21 15:13:19;;;;;;;33.13;14.00;;;0.50;99.90;;;;;;20873386;28;20026;-75
2021/12/21 15:23:20;;;;;;;24.05;11.38;;;0.50;99.90;;;;;;20864025;28;20404;-76
2021/12/21 15:33:21;;;;;;;26.33;10.65;;;0.30;99.90;;;;;;20863963;28;20082;-76
2021/12/21 15:43:30;;;;;;;32.38;13.52;;;0.10;99.90;;;;;;20863412;28;20036;-76
2021/12/21 15:53:31;;;;;;;29.98;14.65;;;-0.10;99.90;;;;;;20842375;28;20045;-76
2021/12/21 16:03:38;;;;;;;34.45;16.00;;;-0.10;99.90;;;;;;20829225;28;20733;-76
2021/12/21 16:13:39;;;;;;;32.05;14.45;;;0.10;99.90;;;;;;20837724;28;20091;-76
2021/12/21 16:23:40;;;;;;;34.33;13.20;;;0.10;99.90;;;;;;20852841;28;20029;-78
2021/12/21 16:33:40;;;;;;;27.48;13.13;;;0.00;99.90;;;;;;20895700;28;20029;-75
2021/12/21 16:43:42;;;;;;;28.35;12.98;;;-0.10;99.90;;;;;;20905226;28;20055;-78
2021/12/21 16:53:42;;;;;;;30.10;13.75;;;-0.10;99.90;;;;;;20857771;28;20033;-76
2021/12/21 17:03:44;;;;;;;28.83;13.73;;;-0.10;99.90;;;;;;20834617;28;20419;-77
2021/12/21 17:13:45;;;;;;;28.90;13.65;;;-0.10;99.90;;;;;;20831982;28;20546;-76
2021/12/21 17:23:48;;;;;;;28.67;13.18;;;-0.20;99.90;;;;;;20877860;28;20111;-76
2021/12/21 17:33:49;;;;;;;29.23;13.63;;;-0.30;99.90;;;;;;20923782;28;20032;-78
2021/12/21 17:43:50;;;;;;;39.13;15.13;;;-0.40;99.90;;;;;;20928931;28;20064;-78
2021/12/21 17:53:50;;;;;;;30.85;13.93;;;-0.40;99.90;;;;;;20915710;28;20036;-77
2021/12/21 18:03:52;;;;;;;29.17;13.63;;;-0.40;99.90;;;;;;20916132;28;20037;-77
2021/12/21 18:13:54;;;;;;;32.08;15.05;;;-0.40;99.90;;;;;;20917728;28;20029;-77
2021/12/21 18:23:54;;;;;;;31.27;14.38;;;-0.40;99.90;;;;;;20911053;28;20037;-76
2021/12/21 18:33:56;;;;;;;32.90;14.77;;;-0.40;99.90;;;;;;20910004;28;20055;-75
2021/12/21 18:44:03;;;;;;;30.95;13.68;;;-0.40;99.90;;;;;;20912864;28;20036;-78
2021/12/21 18:54:04;;;;;;;35.92;15.18;;;-0.40;99.90;;;;;;20872950;28;20044;-75
2021/12/21 19:04:07;;;;;;;28.23;14.23;;;-0.50;99.90;;;;;;20868246;28;20121;-76
2021/12/21 19:14:08;;;;;;;37.83;13.57;;;-0.40;99.90;;;;;;20842148;28;20103;-76
2021/12/21 19:24:09;;;;;;;31.42;14.32;;;-0.30;99.90;;;;;;20863811;28;20392;-76
2021/12/21 19:34:10;;;;;;;31.52;14.20;;;-0.50;99.90;;;;;;20864857;28;20052;-74
2021/12/21 19:44:11;;;;;;;33.95;15.45;;;-0.50;99.90;;;;;;20880091;28;20033;-75
2021/12/21 19:54:12;;;;;;;37.45;16.48;;;-0.50;99.90;;;;;;20885090;28;20036;-75
2021/12/21 20:04:13;;;;;;;34.03;15.30;;;-0.60;99.90;;;;;;20886488;28;20388;-74
2021/12/21 20:14:14;;;;;;;34.40;14.65;;;-0.60;99.90;;;;;;20900845;28;20037;-76
2021/12/21 20:24:15;;;;;;;33.90;14.80;;;-0.50;99.90;;;;;;20866662;28;20634;-75
2021/12/21 20:34:17;;;;;;;37.63;16.08;;;-0.50;99.90;;;;;;20862839;28;20542;-76
2021/12/21 20:44:18;;;;;;;38.08;16.20;;;-0.40;99.90;;;;;;20872835;28;20026;-76
2021/12/21 20:54:19;;;;;;;32.45;13.05;;;-0.60;99.90;;;;;;20874629;28;20295;-76
2021/12/21 21:04:20;;;;;;;32.00;14.00;;;-0.50;99.90;;;;;;20876952;28;20087;-79
2021/12/21 21:14:21;;;;;;;37.65;15.32;;;-0.60;99.90;;;;;;20899778;28;20102;-78
2021/12/21 21:24:22;;;;;;;36.72;14.90;;;-0.60;99.90;;;;;;20878053;28;20030;-77
2021/12/21 21:34:23;;;;;;;36.50;15.18;;;-0.60;99.90;;;;;;20870031;28;20112;-76
2021/12/21 21:44:23;;;;;;;34.38;13.93;;;-0.60;99.90;;;;;;20869181;28;20037;-77
2021/12/21 21:54:24;;;;;;;33.10;14.25;;;-0.60;99.90;;;;;;20872822;28;20086;-76
2021/12/21 22:04:25;;;;;;;30.08;14.07;;;-0.60;99.90;;;;;;20873405;28;20062;-76
2021/12/21 22:14:26;;;;;;;34.90;14.60;;;-0.60;99.90;;;;;;20871109;28;20048;-76
2021/12/21 22:24:27;;;;;;;38.80;14.52;;;-0.60;99.90;;;;;;20854654;28;20036;-78
2021/12/21 22:34:28;;;;;;;37.22;16.10;;;-0.60;99.90;;;;;;20842624;28;20117;-77
2021/12/21 22:44:29;;;;;;;31.67;15.10;;;-0.60;99.90;;;;;;20851591;28;20075;-77
2021/12/21 22:54:29;;;;;;;34.10;15.43;;;-0.70;99.90;;;;;;20881541;28;20041;-75
2021/12/21 23:04:30;;;;;;;36.55;15.20;;;-0.70;99.90;;;;;;20868178;28;20033;-75
2021/12/21 23:14:38;;;;;;;35.78;15.48;;;-0.70;99.90;;;;;;20866084;28;20442;-76
2021/12/21 23:24:39;;;;;;;37.90;15.43;;;-0.70;99.90;;;;;;20869579;28;20091;-76
2021/12/21 23:34:40;;;;;;;32.50;15.20;;;-0.70;99.90;;;;;;20892997;28;20485;-76
2021/12/21 23:44:41;;;;;;;33.75;15.32;;;-0.70;99.90;;;;;;20908834;28;20120;-76
2021/12/21 23:54:42;;;;;;;37.58;15.25;;;-0.70;99.90;;;;;;20909001;28;20060;-75
